createdAt,value
2019-02-28T00:01:11.863Z,1.82
2019-02-28T00:03:46.614Z,2.29
2019-02-28T00:06:22.364Z,2.87
2019-02-28T00:08:56.487Z,1.78
2019-02-28T00:11:30.675Z,1.66
2019-02-28T00:14:04.859Z,2.20
2019-02-28T00:16:39.154Z,2.34
2019-02-28T00:19:13.366Z,2.68
2019-02-28T00:21:50.597Z,3.45
2019-02-28T00:24:27.162Z,3.25
2019-02-28T00:26:59.875Z,2.62
2019-02-28T00:29:34.458Z,2.82
2019-02-28T00:32:10.525Z,2.61
2019-02-28T00:35:05.332Z,2.25
2019-02-28T00:37:39.707Z,2.11
2019-02-28T00:40:14.334Z,3.08
2019-02-28T00:42:50.885Z,3.01
2019-02-28T00:45:26.484Z,2.50
2019-02-28T00:48:03.150Z,2.31
2019-02-28T00:50:37.252Z,2.42
2019-02-28T00:53:11.291Z,2.98
2019-02-28T00:55:46.210Z,3.16
2019-02-28T00:58:22.481Z,3.15
2019-02-28T01:00:56.940Z,2.94
2019-02-28T01:03:31.199Z,2.97
2019-02-28T01:06:09.755Z,3.07
2019-02-28T01:08:42.144Z,3.12
2019-02-28T01:11:18.345Z,3.37
2019-02-28T01:13:52.224Z,3.42
2019-02-28T01:16:27.922Z,3.60
2019-02-28T01:19:08.595Z,4.06
2019-02-28T01:21:39.098Z,4.79
2019-02-28T01:24:14.671Z,5.09
2019-02-28T01:26:48.773Z,5.59
2019-02-28T01:29:33.010Z,5.69
2019-02-28T01:32:07.786Z,5.56
2019-02-28T01:34:42.010Z,5.74
2019-02-28T01:37:16.238Z,6.18
2019-02-28T01:39:50.555Z,6.02
2019-02-28T01:42:24.644Z,5.88
2019-02-28T01:45:00.773Z,6.06
2019-02-28T01:47:35.049Z,6.34
2019-02-28T01:50:11.551Z,6.05
2019-02-28T01:52:48.906Z,6.26
2019-02-28T01:55:23.097Z,6.55
2019-02-28T01:57:57.207Z,6.62
2019-02-28T02:00:31.422Z,6.30
2019-02-28T02:03:05.704Z,6.67
2019-02-28T02:05:41.506Z,6.68
2019-02-28T02:08:16.348Z,6.93
2019-02-28T02:10:54.933Z,6.94
2019-02-28T02:13:25.947Z,6.95
2019-02-28T02:16:01.501Z,7.24
2019-02-28T02:18:35.498Z,6.82
2019-02-28T02:21:11.270Z,6.89
2019-02-28T02:23:49.641Z,7.72
2019-02-28T02:26:24.065Z,7.52
2019-02-28T02:29:03.188Z,8.11
2019-02-28T02:31:37.392Z,8.49
2019-02-28T02:34:11.536Z,8.12
2019-02-28T02:36:53.046Z,7.95
2019-02-28T02:39:21.976Z,8.40
2019-02-28T02:41:55.967Z,8.26
2019-02-28T02:44:31.749Z,8.49
2019-02-28T02:47:05.253Z,8.25
2019-02-28T02:49:39.550Z,8.21
2019-02-28T02:52:18.203Z,7.88
2019-02-28T02:54:53.665Z,8.32
2019-02-28T02:57:27.880Z,7.98
2019-02-28T03:00:03.323Z,7.75
2019-02-28T03:02:37.508Z,8.09
2019-02-28T03:05:13.451Z,8.33
2019-02-28T03:07:47.655Z,8.81
2019-02-28T03:10:21.895Z,9.11
2019-02-28T03:12:56.136Z,8.42
2019-02-28T03:15:31.687Z,8.54
2019-02-28T03:18:26.816Z,8.73
2019-02-28T03:21:01.179Z,9.13
2019-02-28T03:23:40.178Z,9.01
2019-02-28T03:26:12.629Z,9.11
2019-02-28T03:28:46.906Z,9.07
2019-02-28T03:31:21.113Z,8.97
2019-02-28T03:33:55.227Z,9.26
2019-02-28T03:36:29.668Z,9.58
2019-02-28T03:39:03.847Z,9.23
2019-02-28T03:41:38.177Z,9.36
2019-02-28T03:44:19.862Z,9.66
2019-02-28T03:46:48.932Z,10.11
2019-02-28T03:49:23.757Z,10.27
2019-02-28T03:52:04.999Z,10.15
2019-02-28T03:54:37.423Z,10.57
2019-02-28T03:57:12.333Z,10.52
2019-02-28T03:59:55.449Z,10.70
2019-02-28T04:02:24.532Z,10.52
2019-02-28T04:04:58.584Z,10.25
2019-02-28T04:07:34.591Z,10.31
2019-02-28T04:10:10.995Z,10.10
2019-02-28T04:12:46.781Z,9.62
2019-02-28T04:15:21.079Z,9.80
2019-02-28T04:23:48.059Z,9.82
2019-02-28T04:26:23.656Z,9.67
2019-02-28T04:28:57.637Z,9.89
2019-02-28T04:31:31.638Z,9.94
2019-02-28T04:34:12.929Z,9.57
2019-02-28T04:36:43.445Z,9.98
2019-02-28T04:39:18.804Z,9.91
2019-02-28T04:41:54.599Z,9.88
2019-02-28T04:44:28.636Z,9.98
2019-02-28T04:47:03.449Z,9.98
2019-02-28T04:49:37.750Z,10.01
2019-02-28T04:52:18.898Z,9.76
2019-02-28T04:54:54.739Z,9.48
2019-02-28T04:57:29.097Z,9.73
2019-02-28T05:00:05.900Z,10.03
2019-02-28T05:02:39.774Z,10.05
2019-02-28T05:05:13.968Z,10.28
2019-02-28T05:07:50.017Z,9.65
2019-02-28T05:10:25.160Z,9.76
2019-02-28T05:12:59.065Z,9.90
2019-02-28T05:15:37.518Z,10.29
2019-02-28T05:18:08.595Z,10.42
2019-02-28T05:20:45.970Z,10.18
2019-02-28T05:23:20.990Z,10.24
2019-02-28T05:25:54.983Z,10.31
2019-02-28T05:28:28.766Z,10.70
2019-02-28T05:31:04.177Z,10.60
2019-02-28T05:33:38.382Z,10.58
2019-02-28T05:36:15.082Z,10.30
2019-02-28T05:38:53.587Z,10.44
2019-02-28T05:41:25.840Z,10.22
2019-02-28T05:44:03.290Z,10.56
2019-02-28T05:46:36.662Z,10.59
2019-02-28T05:49:10.512Z,10.31
2019-02-28T05:51:45.851Z,10.56
2019-02-28T05:54:21.217Z,10.43
2019-02-28T05:56:55.272Z,10.39
2019-02-28T05:59:30.560Z,10.50
2019-02-28T06:02:04.541Z,10.50
2019-02-28T06:04:38.538Z,10.49
2019-02-28T06:07:12.516Z,10.12
2019-02-28T06:09:48.799Z,10.03
2019-02-28T06:12:21.469Z,10.35
2019-02-28T06:15:01.944Z,10.03
2019-02-28T06:17:32.172Z,10.14
2019-02-28T06:20:08.348Z,10.24
2019-02-28T06:22:42.225Z,10.12
2019-02-28T06:25:24.060Z,9.87
2019-02-28T06:27:51.831Z,9.92
2019-02-28T06:30:27.619Z,9.83
2019-02-28T06:33:00.640Z,9.94
2019-02-28T06:35:34.532Z,9.86
2019-02-28T06:38:08.353Z,9.85
2019-02-28T06:40:42.627Z,9.74
2019-02-28T06:43:18.808Z,9.95
2019-02-28T06:45:51.639Z,9.85
2019-02-28T06:48:26.628Z,9.90
2019-02-28T06:51:00.729Z,9.65
2019-02-28T06:53:36.376Z,9.70
2019-02-28T06:56:10.237Z,9.81
2019-02-28T06:58:51.258Z,9.87
2019-02-28T07:01:25.779Z,9.77
2019-02-28T07:04:01.145Z,9.59
2019-02-28T07:06:35.935Z,9.49
2019-02-28T07:09:11.001Z,9.37
2019-02-28T07:11:46.815Z,9.50
2019-02-28T07:14:20.868Z,9.44
2019-02-28T07:16:54.787Z,9.50
2019-02-28T07:19:31.027Z,9.69
2019-02-28T07:22:04.943Z,9.40
2019-02-28T07:24:40.545Z,9.43
2019-02-28T07:27:15.913Z,9.31
2019-02-28T07:29:49.942Z,9.29
2019-02-28T07:32:26.202Z,9.41
2019-02-28T07:35:00.796Z,9.28
2019-02-28T07:37:34.619Z,9.22
2019-02-28T07:40:15.753Z,9.20
2019-02-28T07:42:50.501Z,8.98
2019-02-28T07:45:24.566Z,9.15
2019-02-28T07:48:00.734Z,8.96
2019-02-28T07:50:34.625Z,9.03
2019-02-28T07:53:11.801Z,9.05
2019-02-28T07:55:46.035Z,9.05
2019-02-28T07:58:20.012Z,8.98
2019-02-28T08:00:54.401Z,8.95
2019-02-28T08:03:30.080Z,8.90
2019-02-28T08:06:04.917Z,8.90
2019-02-28T08:08:40.734Z,8.78
2019-02-28T08:11:16.437Z,8.84
2019-02-28T08:13:55.553Z,8.79
2019-02-28T08:16:34.023Z,8.70
2019-02-28T08:19:06.463Z,8.61
2019-02-28T08:21:47.570Z,8.52
2019-02-28T08:24:18.618Z,8.47
2019-02-28T08:26:53.645Z,8.29
2019-02-28T08:29:27.581Z,8.15
2019-02-28T08:32:06.995Z,8.24
2019-02-28T08:34:38.796Z,8.22
2019-02-28T08:37:12.666Z,8.16
2019-02-28T08:39:46.581Z,8.20
2019-02-28T08:42:20.601Z,8.08
2019-02-28T08:44:58.081Z,8.02
2019-02-28T08:47:29.868Z,7.93
2019-02-28T08:50:05.340Z,7.79
2019-02-28T08:52:41.017Z,7.73
2019-02-28T08:55:27.897Z,7.62
2019-02-28T08:58:04.421Z,7.67
2019-02-28T09:00:33.384Z,7.66
2019-02-28T09:03:08.253Z,7.63
2019-02-28T09:05:43.155Z,7.60
2019-02-28T09:08:17.299Z,7.47
2019-02-28T09:10:56.390Z,7.22
2019-02-28T09:13:32.451Z,7.20
2019-02-28T09:16:09.106Z,7.02
2019-02-28T09:18:44.855Z,6.85
2019-02-28T09:21:21.667Z,6.75
2019-02-28T09:23:59.401Z,6.73
2019-02-28T09:26:36.747Z,6.68
2019-02-28T09:29:14.350Z,6.76
2019-02-28T09:31:48.948Z,6.86
2019-02-28T09:34:24.853Z,6.69
2019-02-28T09:37:00.156Z,6.65
2019-02-28T09:39:35.630Z,6.44
2019-02-28T09:42:14.815Z,6.41
2019-02-28T09:44:52.938Z,6.41
2019-02-28T09:47:27.571Z,6.37
2019-02-28T09:50:08.715Z,6.25
2019-02-28T09:52:44.569Z,6.13
2019-02-28T09:55:25.493Z,6.02
2019-02-28T09:58:07.464Z,5.83
2019-02-28T10:00:39.969Z,5.64
2019-02-28T10:03:15.418Z,5.51
2019-02-28T10:05:51.562Z,5.38
2019-02-28T10:08:27.416Z,5.26
2019-02-28T10:11:03.065Z,5.06
2019-02-28T10:13:38.929Z,4.80
2019-02-28T10:16:13.613Z,4.76
2019-02-28T10:18:48.352Z,4.70
2019-02-28T10:21:25.350Z,4.53
2019-02-28T10:24:01.968Z,4.47
2019-02-28T10:26:38.942Z,4.44
2019-02-28T10:29:15.676Z,4.37
2019-02-28T10:31:54.153Z,4.41
2019-02-28T10:34:35.366Z,4.39
2019-02-28T10:37:11.234Z,4.22
2019-02-28T10:39:46.085Z,4.14
2019-02-28T10:42:24.595Z,3.92
2019-02-28T10:45:06.528Z,4.07
2019-02-28T10:47:40.801Z,3.83
2019-02-28T10:50:32.170Z,3.74
2019-02-28T10:53:06.085Z,3.85
2019-02-28T10:55:41.288Z,3.77
2019-02-28T10:58:27.352Z,3.55
2019-02-28T11:01:08.659Z,3.66
2019-02-28T11:03:42.686Z,3.69
2019-02-28T11:06:18.751Z,3.50
2019-02-28T11:08:57.254Z,3.34
2019-02-28T11:11:32.254Z,3.20
2019-02-28T11:14:08.844Z,3.01
2019-02-28T11:16:46.526Z,2.95
2019-02-28T11:19:27.527Z,3.06
2019-02-28T11:22:05.955Z,2.97
2019-02-28T11:24:41.747Z,2.87
2019-02-28T11:27:20.903Z,2.74
2019-02-28T11:30:00.170Z,2.67
2019-02-28T11:32:36.412Z,2.64
2019-02-28T11:35:13.718Z,2.44
2019-02-28T11:37:48.809Z,2.50
2019-02-28T11:40:26.412Z,2.32
2019-02-28T11:43:02.870Z,2.22
2019-02-28T11:45:39.860Z,2.32
2019-02-28T11:48:23.409Z,2.32
2019-02-28T11:50:58.761Z,2.20
2019-02-28T11:53:39.380Z,2.13
2019-02-28T11:56:11.052Z,2.10
2019-02-28T11:58:51.481Z,1.99
2019-02-28T12:01:25.858Z,2.00
2019-02-28T12:04:03.825Z,1.95
2019-02-28T12:06:44.274Z,1.90
2019-02-28T12:09:21.025Z,1.77
2019-02-28T12:12:01.959Z,1.78
2019-02-28T12:14:39.976Z,1.77
2019-02-28T12:17:18.548Z,1.75
2019-02-28T12:19:53.873Z,1.65
2019-02-28T12:22:35.450Z,1.73
2019-02-28T12:25:17.652Z,1.64
2019-02-28T12:27:59.400Z,1.51
2019-02-28T12:30:40.165Z,1.42
2019-02-28T12:33:15.476Z,1.46
2019-02-28T12:36:17.744Z,1.43
2019-02-28T12:38:44.567Z,1.38
2019-02-28T12:41:21.700Z,1.39
2019-02-28T12:43:59.735Z,1.36
2019-02-28T12:46:35.832Z,1.30
2019-02-28T12:49:13.346Z,1.29
2019-02-28T12:51:50.533Z,1.18
2019-02-28T12:54:25.996Z,1.11
2019-02-28T12:57:02.470Z,1.11
2019-02-28T12:59:46.097Z,1.13
2019-02-28T13:02:19.821Z,0.97
2019-02-28T13:04:59.689Z,0.92
2019-02-28T13:07:37.037Z,0.83
2019-02-28T13:10:15.033Z,0.89
2019-02-28T13:13:05.612Z,0.87
2019-02-28T13:15:35.108Z,0.91
2019-02-28T13:18:10.489Z,0.87
2019-02-28T13:20:45.970Z,0.85
2019-02-28T13:23:21.910Z,0.87
2019-02-28T13:25:59.960Z,0.73
2019-02-28T13:28:35.082Z,0.78
2019-02-28T13:31:09.993Z,0.61
2019-02-28T13:33:52.773Z,0.61
2019-02-28T13:36:28.058Z,0.51
2019-02-28T13:39:02.397Z,0.55
2019-02-28T13:41:36.942Z,0.50
2019-02-28T13:44:11.838Z,0.47
2019-02-28T13:46:46.963Z,0.40
2019-02-28T13:49:22.112Z,0.34
2019-02-28T13:51:56.951Z,0.22
2019-02-28T13:54:33.471Z,0.18
2019-02-28T13:57:10.417Z,0.16
2019-02-28T13:59:48.349Z,0.14
2019-02-28T14:02:22.908Z,0.14
2019-02-28T14:04:58.679Z,0.15
2019-02-28T14:07:35.185Z,0.09
2019-02-28T14:10:14.581Z,0.00
2019-02-28T14:12:52.979Z,-0.03
2019-02-28T14:15:27.890Z,-0.12
2019-02-28T14:18:04.164Z,-0.08
2019-02-28T14:20:40.357Z,-0.09
2019-02-28T14:23:21.681Z,-0.27
2019-02-28T14:29:14.907Z,-0.43
2019-02-28T14:35:09.895Z,-0.41
2019-02-28T14:37:46.708Z,-0.41
2019-02-28T14:40:21.644Z,-0.39
2019-02-28T14:42:56.176Z,-0.44
2019-02-28T14:45:39.022Z,-0.50
2019-02-28T14:48:13.559Z,-0.55
2019-02-28T14:50:50.707Z,-0.53
2019-02-28T14:53:26.194Z,-0.43
2019-02-28T14:56:00.862Z,-0.44
2019-02-28T14:58:37.110Z,-0.40
2019-02-28T15:01:16.824Z,-0.43
2019-02-28T15:03:48.617Z,-0.52
2019-02-28T15:06:26.308Z,-0.54
2019-02-28T15:09:00.371Z,-0.63
2019-02-28T15:11:34.649Z,-0.76
2019-02-28T15:14:10.520Z,-0.72
2019-02-28T15:16:46.143Z,-0.80
2019-02-28T15:19:21.359Z,-0.81
2019-02-28T15:21:55.823Z,-0.84
2019-02-28T15:24:36.065Z,-0.76
2019-02-28T15:27:10.430Z,-0.62
2019-02-28T15:29:45.477Z,-0.73
2019-02-28T15:32:23.496Z,-0.78
2019-02-28T15:35:03.865Z,-0.77
2019-02-28T15:37:36.784Z,-0.83
2019-02-28T15:40:16.311Z,-0.81
2019-02-28T15:42:52.115Z,-0.92
2019-02-28T15:45:27.893Z,-0.94
2019-02-28T15:48:03.518Z,-0.97
2019-02-28T15:50:37.590Z,-1.01
2019-02-28T15:53:14.339Z,-1.09
2019-02-28T15:55:47.435Z,-1.11
2019-02-28T15:58:22.250Z,-1.05
2019-02-28T16:00:56.631Z,-1.07
2019-02-28T16:03:35.510Z,-1.07
2019-02-28T16:06:09.520Z,-1.07
2019-02-28T16:08:46.787Z,-1.10
2019-02-28T16:11:18.654Z,-1.15
2019-02-28T16:13:52.512Z,-1.06
2019-02-28T16:16:27.549Z,-1.07
2019-02-28T16:19:01.588Z,-1.12
2019-02-28T16:21:38.133Z,-1.19
2019-02-28T16:24:10.556Z,-1.24
2019-02-28T16:26:44.693Z,-1.15
2019-02-28T16:29:20.714Z,-1.28
2019-02-28T16:31:53.643Z,-1.22
2019-02-28T16:34:27.586Z,-1.35
2019-02-28T16:37:01.947Z,-1.41
2019-02-28T16:39:35.943Z,-1.34
2019-02-28T16:42:11.406Z,-1.21
2019-02-28T16:44:46.405Z,-1.24
2019-02-28T16:47:21.455Z,-1.46
2019-02-28T16:49:55.512Z,-1.35
2019-02-28T16:52:29.469Z,-1.49
2019-02-28T16:55:03.518Z,-1.65
2019-02-28T16:57:37.459Z,-1.57
2019-02-28T17:00:16.564Z,-1.58
2019-02-28T17:02:50.559Z,-1.63
2019-02-28T17:05:28.001Z,-1.78
2019-02-28T17:08:02.125Z,-1.78
2019-02-28T17:10:40.185Z,-1.77
2019-02-28T17:13:12.404Z,-1.51
2019-02-28T17:15:48.183Z,-1.90
2019-02-28T17:18:22.559Z,-1.90
2019-02-28T17:20:59.467Z,-1.75
2019-02-28T17:23:33.667Z,-1.66
2019-02-28T17:26:08.630Z,-1.67
2019-02-28T17:28:46.623Z,-1.46
2019-02-28T17:31:20.538Z,-1.32
2019-02-28T17:33:54.584Z,-1.18
2019-02-28T17:36:30.072Z,-0.96
2019-02-28T17:39:04.110Z,-0.86
2019-02-28T17:41:39.719Z,-0.65
2019-02-28T17:44:33.969Z,-0.63
2019-02-28T17:47:13.229Z,-1.08
2019-02-28T17:50:05.554Z,-1.33
2019-02-28T17:53:01.144Z,-1.44
2019-02-28T17:55:47.405Z,-1.68
2019-02-28T17:58:41.575Z,-1.66
2019-02-28T18:01:37.654Z,-1.67
2019-02-28T18:04:28.777Z,-1.80
2019-02-28T18:07:35.971Z,-2.01
2019-02-28T18:10:33.626Z,-2.04
2019-02-28T18:13:19.998Z,-2.04
2019-02-28T18:16:30.210Z,-2.11
2019-02-28T18:19:33.094Z,-2.07
2019-02-28T18:22:16.142Z,-2.25
2019-02-28T18:25:22.491Z,-2.26
2019-02-28T18:28:26.989Z,-2.23
2019-02-28T18:31:22.084Z,-2.19
2019-02-28T18:33:57.511Z,-2.34
2019-02-28T18:36:32.970Z,-2.35
2019-02-28T18:39:08.113Z,-2.43
2019-02-28T18:41:43.159Z,-2.39
2019-02-28T18:44:17.185Z,-2.44
2019-02-28T18:46:51.156Z,-2.46
2019-02-28T18:49:26.665Z,-2.43
2019-02-28T18:52:00.348Z,-2.50
2019-02-28T18:54:34.355Z,-2.47
2019-02-28T18:57:09.916Z,-2.53
2019-02-28T18:59:43.849Z,-2.50
2019-02-28T19:02:18.090Z,-2.51
2019-02-28T19:04:52.074Z,-2.45
2019-02-28T19:07:26.660Z,-2.49
2019-02-28T19:10:00.628Z,-2.58
2019-02-28T19:12:34.544Z,-2.48
2019-02-28T19:15:16.331Z,-2.42
2019-02-28T19:17:50.311Z,-2.42
2019-02-28T19:20:24.169Z,-2.20
2019-02-28T19:22:59.616Z,-2.17
2019-02-28T19:25:36.710Z,-2.12
2019-02-28T19:28:08.692Z,-2.11
2019-02-28T19:30:42.643Z,-2.24
2019-02-28T19:33:18.087Z,-2.28
2019-02-28T19:35:53.443Z,-2.20
2019-02-28T19:38:28.833Z,-2.17
2019-02-28T19:41:04.188Z,-1.95
2019-02-28T19:43:38.052Z,-1.98
2019-02-28T19:46:11.955Z,-1.91
2019-02-28T19:48:45.999Z,-2.07
2019-02-28T19:51:19.959Z,-2.12
2019-02-28T19:53:53.859Z,-2.12
2019-02-28T19:56:27.844Z,-2.24
2019-02-28T19:59:01.800Z,-2.28
2019-02-28T20:01:35.759Z,-2.01
2019-02-28T20:04:09.679Z,-1.89
2019-02-28T20:06:43.697Z,-1.89
2019-02-28T20:09:17.823Z,-1.68
2019-02-28T20:11:51.795Z,-1.19
2019-02-28T20:14:25.878Z,-1.07
2019-02-28T20:16:59.890Z,-1.10
2019-02-28T20:19:33.786Z,-1.10
2019-02-28T20:22:08.065Z,-1.18
2019-02-28T20:24:42.102Z,-1.15
2019-02-28T20:27:17.477Z,-1.11
2019-02-28T20:29:55.165Z,-1.42
2019-02-28T20:32:27.833Z,-1.33
2019-02-28T20:35:01.738Z,-1.26
2019-02-28T20:37:35.627Z,-1.17
2019-02-28T20:40:22.843Z,-1.25
2019-02-28T20:42:57.730Z,-1.20
2019-02-28T20:45:31.760Z,-1.37
2019-02-28T20:48:05.879Z,-1.53
2019-02-28T20:50:52.630Z,-1.54
2019-02-28T20:53:25.824Z,-1.56
2019-02-28T20:56:01.010Z,-1.62
2019-02-28T20:58:35.010Z,-1.65
2019-02-28T21:04:11.884Z,-1.62
2019-02-28T21:06:45.763Z,-1.73
2019-02-28T21:09:20.636Z,-1.73
2019-02-28T21:11:54.630Z,-1.80
2019-02-28T21:14:30.120Z,-1.58
2019-02-28T21:17:04.128Z,-1.67
2019-02-28T21:19:39.463Z,-1.67
2019-02-28T21:22:13.593Z,-1.67
2019-02-28T21:24:47.472Z,-1.49
2019-02-28T21:27:21.407Z,-1.71
2019-02-28T21:29:55.365Z,-1.80
2019-02-28T21:32:29.248Z,-1.86
2019-02-28T21:35:04.652Z,-1.96
2019-02-28T21:37:38.587Z,-1.89
2019-02-28T21:40:15.332Z,-1.88
2019-02-28T21:42:49.295Z,-1.95
2019-02-28T21:45:27.018Z,-1.95
2019-02-28T21:48:09.578Z,-1.84
2019-02-28T21:50:42.461Z,-1.68
2019-02-28T21:53:16.404Z,-1.74
2019-02-28T21:55:50.467Z,-1.74
2019-02-28T21:58:25.951Z,-1.62
2019-02-28T22:01:00.033Z,-1.69
2019-02-28T22:03:34.062Z,-1.70
2019-02-28T22:06:08.019Z,-1.75
2019-02-28T22:08:44.341Z,-1.78
2019-02-28T22:11:19.784Z,-1.83
2019-02-28T22:13:55.323Z,-1.83
2019-02-28T22:16:29.295Z,-2.00
2019-02-28T22:19:03.970Z,-2.02
2019-02-28T22:21:38.656Z,-2.05
2019-02-28T22:24:13.826Z,-2.12
2019-02-28T22:26:50.694Z,-2.02
2019-02-28T22:29:24.756Z,-1.93
2019-02-28T22:31:58.717Z,-1.83
2019-02-28T22:34:32.724Z,-1.74
2019-02-28T22:37:06.677Z,-1.68
2019-02-28T22:39:40.587Z,-1.55
2019-02-28T22:42:22.143Z,-1.53
2019-02-28T22:44:53.615Z,-1.59
2019-02-28T22:47:26.641Z,-1.53
2019-02-28T22:50:02.284Z,-1.50
2019-02-28T22:52:37.868Z,-1.32
2019-02-28T22:55:14.661Z,-1.27
2019-02-28T22:57:49.866Z,-1.14
2019-02-28T23:00:45.327Z,-1.07
2019-02-28T23:03:19.419Z,-0.95
2019-02-28T23:05:53.553Z,-0.90
2019-02-28T23:08:27.602Z,-0.80
2019-02-28T23:14:34.735Z,-0.59
2019-02-28T23:17:07.120Z,-0.41
2019-02-28T23:19:41.062Z,-0.35
2019-02-28T23:22:16.846Z,-0.30
2019-02-28T23:24:50.474Z,-0.18
2019-02-28T23:27:24.406Z,0.03
2019-02-28T23:30:08.071Z,0.46
2019-02-28T23:32:54.563Z,0.94
2019-02-28T23:35:31.414Z,0.97
2019-02-28T23:38:06.776Z,1.27
2019-02-28T23:40:44.741Z,0.86
2019-02-28T23:43:18.760Z,1.34
2019-02-28T23:45:52.759Z,1.04
2019-02-28T23:48:28.329Z,1.46
2019-02-28T23:51:11.385Z,1.51
2019-02-28T23:53:46.556Z,2.19
2019-02-28T23:56:20.485Z,2.57
2019-02-28T23:58:55.905Z,3.10
